sensor_id;sensor_type;location;lat;lon;timestamp;pressure;altitude;pressure_sealevel;temperature;humidity
70437;BME280;57877;39.750;-104.894;2023-04-30T00:00:40;83698.92;;;21.26;13.52
70437;BME280;57877;39.750;-104.894;2023-04-30T00:03:06;83702.03;;;21.69;13.62
70437;BME280;57877;39.750;-104.894;2023-04-30T00:05:32;83699.64;;;21.78;13.41
70437;BME280;57877;39.750;-104.894;2023-04-30T00:07:58;83696.33;;;21.74;13.60
70437;BME280;57877;39.750;-104.894;2023-04-30T00:10:24;83694.87;;;22.30;13.46
70437;BME280;57877;39.750;-104.894;2023-04-30T00:12:50;83690.54;;;21.22;14.31
70437;BME280;57877;39.750;-104.894;2023-04-30T00:15:16;83693.16;;;21.84;13.92
70437;BME280;57877;39.750;-104.894;2023-04-30T00:17:42;83694.05;;;21.67;13.58
70437;BME280;57877;39.750;-104.894;2023-04-30T00:20:08;83691.36;;;21.52;13.87
70437;BME280;57877;39.750;-104.894;2023-04-30T00:22:34;83689.40;;;22.00;13.41
70437;BME280;57877;39.750;-104.894;2023-04-30T00:24:59;83684.92;;;21.63;13.53
70437;BME280;57877;39.750;-104.894;2023-04-30T00:27:25;83685.27;;;21.14;13.78
70437;BME280;57877;39.750;-104.894;2023-04-30T00:29:51;83683.16;;;21.59;13.47
70437;BME280;57877;39.750;-104.894;2023-04-30T00:32:17;83680.99;;;22.01;13.40
70437;BME280;57877;39.750;-104.894;2023-04-30T00:34:43;83680.18;;;21.08;14.07
70437;BME280;57877;39.750;-104.894;2023-04-30T00:37:09;83679.43;;;20.95;14.19
70437;BME280;57877;39.750;-104.894;2023-04-30T00:39:35;83674.35;;;20.79;14.19
70437;BME280;57877;39.750;-104.894;2023-04-30T00:42:01;83673.81;;;20.79;14.31
70437;BME280;57877;39.750;-104.894;2023-04-30T00:44:27;83672.56;;;21.13;14.05
70437;BME280;57877;39.750;-104.894;2023-04-30T00:46:53;83671.55;;;21.15;13.90
70437;BME280;57877;39.750;-104.894;2023-04-30T00:49:19;83673.01;;;21.96;13.69
70437;BME280;57877;39.750;-104.894;2023-04-30T00:51:45;83674.49;;;21.15;13.80
70437;BME280;57877;39.750;-104.894;2023-04-30T00:54:10;83677.35;;;22.49;13.33
70437;BME280;57877;39.750;-104.894;2023-04-30T00:56:36;83675.08;;;21.60;14.12
70437;BME280;57877;39.750;-104.894;2023-04-30T00:59:02;83673.59;;;21.21;14.20
70437;BME280;57877;39.750;-104.894;2023-04-30T01:01:28;83674.62;;;21.11;14.13
70437;BME280;57877;39.750;-104.894;2023-04-30T01:03:54;83675.02;;;21.31;13.90
70437;BME280;57877;39.750;-104.894;2023-04-30T01:06:20;83676.76;;;21.47;13.96
70437;BME280;57877;39.750;-104.894;2023-04-30T01:08:46;83678.56;;;21.42;13.70
70437;BME280;57877;39.750;-104.894;2023-04-30T01:11:20;83682.68;;;20.73;14.36
70437;BME280;57877;39.750;-104.894;2023-04-30T01:16:09;83683.45;;;21.12;14.48
70437;BME280;57877;39.750;-104.894;2023-04-30T01:18:36;83689.05;;;21.17;14.58
70437;BME280;57877;39.750;-104.894;2023-04-30T01:21:01;83688.90;;;21.25;14.63
70437;BME280;57877;39.750;-104.894;2023-04-30T01:23:32;83690.08;;;21.38;14.42
70437;BME280;57877;39.750;-104.894;2023-04-30T01:25:59;83692.91;;;21.26;14.46
70437;BME280;57877;39.750;-104.894;2023-04-30T01:28:15;83699.23;;;21.14;14.50
70437;BME280;57877;39.750;-104.894;2023-04-30T01:30:41;83696.08;;;20.61;14.87
70437;BME280;57877;39.750;-104.894;2023-04-30T01:33:05;83696.17;;;20.63;14.91
70437;BME280;57877;39.750;-104.894;2023-04-30T01:35:40;83698.19;;;20.90;14.92
70437;BME280;57877;39.750;-104.894;2023-04-30T01:38:05;83699.09;;;20.79;15.07
70437;BME280;57877;39.750;-104.894;2023-04-30T01:40:25;83700.81;;;20.57;15.33
70437;BME280;57877;39.750;-104.894;2023-04-30T01:42:54;83700.04;;;20.65;14.97
70437;BME280;57877;39.750;-104.894;2023-04-30T01:45:28;83701.49;;;21.01;14.99
70437;BME280;57877;39.750;-104.894;2023-04-30T01:47:47;83702.82;;;20.63;15.14
70437;BME280;57877;39.750;-104.894;2023-04-30T01:50:24;83705.47;;;20.75;15.18
70437;BME280;57877;39.750;-104.894;2023-04-30T01:52:38;83707.62;;;20.74;15.27
70437;BME280;57877;39.750;-104.894;2023-04-30T01:55:02;83710.88;;;20.70;15.08
70437;BME280;57877;39.750;-104.894;2023-04-30T01:57:31;83712.19;;;20.41;15.59
70437;BME280;57877;39.750;-104.894;2023-04-30T01:59:50;83714.99;;;20.85;15.15
70437;BME280;57877;39.750;-104.894;2023-04-30T02:02:16;83716.38;;;20.15;15.71
70437;BME280;57877;39.750;-104.894;2023-04-30T02:04:42;83718.87;;;19.78;15.99
70437;BME280;57877;39.750;-104.894;2023-04-30T02:07:08;83723.34;;;20.01;16.08
70437;BME280;57877;39.750;-104.894;2023-04-30T02:09:34;83728.03;;;19.72;15.82
70437;BME280;57877;39.750;-104.894;2023-04-30T02:12:00;83729.19;;;19.99;16.01
70437;BME280;57877;39.750;-104.894;2023-04-30T02:14:26;83730.44;;;19.93;16.19
70437;BME280;57877;39.750;-104.894;2023-04-30T02:16:52;83731.19;;;19.94;16.50
70437;BME280;57877;39.750;-104.894;2023-04-30T02:19:18;83731.44;;;18.84;16.76
70437;BME280;57877;39.750;-104.894;2023-04-30T02:21:44;83736.21;;;19.72;16.86
70437;BME280;57877;39.750;-104.894;2023-04-30T02:24:10;83737.32;;;19.63;16.91
70437;BME280;57877;39.750;-104.894;2023-04-30T02:26:35;83737.82;;;19.26;17.11
70437;BME280;57877;39.750;-104.894;2023-04-30T02:29:02;83739.94;;;19.40;17.27
70437;BME280;57877;39.750;-104.894;2023-04-30T02:31:27;83742.39;;;19.77;17.21
70437;BME280;57877;39.750;-104.894;2023-04-30T02:33:53;83743.68;;;19.76;16.96
70437;BME280;57877;39.750;-104.894;2023-04-30T02:36:19;83743.59;;;19.90;16.82
70437;BME280;57877;39.750;-104.894;2023-04-30T02:38:45;83748.38;;;19.63;16.93
70437;BME280;57877;39.750;-104.894;2023-04-30T02:41:11;83750.07;;;19.53;16.70
70437;BME280;57877;39.750;-104.894;2023-04-30T02:43:37;83750.42;;;19.07;17.14
70437;BME280;57877;39.750;-104.894;2023-04-30T02:46:03;83751.41;;;18.83;17.32
70437;BME280;57877;39.750;-104.894;2023-04-30T02:48:29;83751.70;;;19.35;17.43
70437;BME280;57877;39.750;-104.894;2023-04-30T02:50:55;83756.04;;;19.13;17.56
70437;BME280;57877;39.750;-104.894;2023-04-30T02:53:21;83757.32;;;19.45;17.08
70437;BME280;57877;39.750;-104.894;2023-04-30T02:55:47;83762.44;;;19.63;17.10
70437;BME280;57877;39.750;-104.894;2023-04-30T02:58:13;83766.86;;;19.08;17.23
70437;BME280;57877;39.750;-104.894;2023-04-30T03:00:39;83774.65;;;19.36;17.05
70437;BME280;57877;39.750;-104.894;2023-04-30T03:03:05;83778.19;;;18.90;17.64
70437;BME280;57877;39.750;-104.894;2023-04-30T03:05:31;83780.51;;;18.81;17.69
70437;BME280;57877;39.750;-104.894;2023-04-30T03:07:57;83784.18;;;18.58;18.27
70437;BME280;57877;39.750;-104.894;2023-04-30T03:10:23;83784.94;;;18.13;18.47
70437;BME280;57877;39.750;-104.894;2023-04-30T03:12:49;83787.37;;;18.05;18.83
70437;BME280;57877;39.750;-104.894;2023-04-30T03:15:15;83787.67;;;18.49;18.76
70437;BME280;57877;39.750;-104.894;2023-04-30T03:17:41;83786.29;;;17.69;19.12
70437;BME280;57877;39.750;-104.894;2023-04-30T03:20:08;83789.58;;;17.92;19.10
70437;BME280;57877;39.750;-104.894;2023-04-30T03:22:33;83793.70;;;17.94;18.91
70437;BME280;57877;39.750;-104.894;2023-04-30T03:24:59;83798.18;;;17.79;18.86
70437;BME280;57877;39.750;-104.894;2023-04-30T03:27:25;83796.87;;;17.72;19.06
70437;BME280;57877;39.750;-104.894;2023-04-30T03:29:51;83801.68;;;17.93;18.75
70437;BME280;57877;39.750;-104.894;2023-04-30T03:32:17;83801.86;;;17.42;19.32
70437;BME280;57877;39.750;-104.894;2023-04-30T03:34:43;83803.20;;;17.44;19.22
70437;BME280;57877;39.750;-104.894;2023-04-30T03:37:09;83803.31;;;17.56;19.04
70437;BME280;57877;39.750;-104.894;2023-04-30T03:39:35;83807.52;;;18.02;18.85
70437;BME280;57877;39.750;-104.894;2023-04-30T03:42:01;83804.07;;;17.52;19.02
70437;BME280;57877;39.750;-104.894;2023-04-30T03:44:27;83802.36;;;17.59;19.02
70437;BME280;57877;39.750;-104.894;2023-04-30T03:46:53;83798.16;;;18.10;18.64
70437;BME280;57877;39.750;-104.894;2023-04-30T03:49:19;83794.98;;;18.22;18.25
70437;BME280;57877;39.750;-104.894;2023-04-30T03:51:45;83792.30;;;18.12;18.16
70437;BME280;57877;39.750;-104.894;2023-04-30T03:54:10;83791.81;;;17.79;18.48
70437;BME280;57877;39.750;-104.894;2023-04-30T03:56:37;83793.48;;;17.77;18.45
70437;BME280;57877;39.750;-104.894;2023-04-30T03:59:03;83794.52;;;17.41;18.91
70437;BME280;57877;39.750;-104.894;2023-04-30T04:01:29;83790.06;;;17.39;19.37
70437;BME280;57877;39.750;-104.894;2023-04-30T04:03:54;83788.34;;;17.10;19.77
70437;BME280;57877;39.750;-104.894;2023-04-30T04:06:20;83785.81;;;17.43;19.80
70437;BME280;57877;39.750;-104.894;2023-04-30T04:08:46;83781.66;;;17.36;19.72
70437;BME280;57877;39.750;-104.894;2023-04-30T04:11:12;83778.27;;;17.26;19.85
70437;BME280;57877;39.750;-104.894;2023-04-30T04:13:38;83774.47;;;16.57;20.46
70437;BME280;57877;39.750;-104.894;2023-04-30T04:16:04;83770.95;;;17.17;20.31
70437;BME280;57877;39.750;-104.894;2023-04-30T04:18:30;83764.85;;;17.10;20.41
70437;BME280;57877;39.750;-104.894;2023-04-30T04:20:56;83762.27;;;16.55;20.49
70437;BME280;57877;39.750;-104.894;2023-04-30T04:23:22;83766.19;;;16.68;20.58
70437;BME280;57877;39.750;-104.894;2023-04-30T04:25:48;83765.53;;;16.87;20.51
70437;BME280;57877;39.750;-104.894;2023-04-30T04:28:14;83762.43;;;16.87;20.44
70437;BME280;57877;39.750;-104.894;2023-04-30T04:30:40;83762.63;;;17.00;20.29
70437;BME280;57877;39.750;-104.894;2023-04-30T04:33:06;83764.75;;;16.74;20.64
70437;BME280;57877;39.750;-104.894;2023-04-30T04:35:32;83764.53;;;16.56;20.54
70437;BME280;57877;39.750;-104.894;2023-04-30T04:37:58;83767.31;;;16.60;20.60
70437;BME280;57877;39.750;-104.894;2023-04-30T04:40:24;83761.91;;;16.27;20.93
70437;BME280;57877;39.750;-104.894;2023-04-30T04:42:50;83764.19;;;16.45;20.76
70437;BME280;57877;39.750;-104.894;2023-04-30T04:45:16;83768.71;;;16.71;20.60
70437;BME280;57877;39.750;-104.894;2023-04-30T04:47:41;83770.25;;;16.58;20.73
70437;BME280;57877;39.750;-104.894;2023-04-30T04:50:08;83771.15;;;16.35;20.70
70437;BME280;57877;39.750;-104.894;2023-04-30T04:52:33;83770.80;;;16.49;20.77
70437;BME280;57877;39.750;-104.894;2023-04-30T04:54:59;83770.10;;;16.35;20.74
70437;BME280;57877;39.750;-104.894;2023-04-30T04:57:25;83772.00;;;16.42;20.73
70437;BME280;57877;39.750;-104.894;2023-04-30T04:59:51;83771.67;;;16.39;20.56
70437;BME280;57877;39.750;-104.894;2023-04-30T05:02:17;83766.81;;;16.25;21.06
70437;BME280;57877;39.750;-104.894;2023-04-30T05:04:44;83766.48;;;16.28;21.12
70437;BME280;57877;39.750;-104.894;2023-04-30T05:07:09;83765.72;;;16.19;21.19
70437;BME280;57877;39.750;-104.894;2023-04-30T05:09:36;83766.80;;;16.05;21.29
70437;BME280;57877;39.750;-104.894;2023-04-30T05:12:01;83766.50;;;16.14;21.60
70437;BME280;57877;39.750;-104.894;2023-04-30T05:14:27;83763.07;;;16.16;21.53
70437;BME280;57877;39.750;-104.894;2023-04-30T05:16:53;83762.93;;;16.05;21.42
70437;BME280;57877;39.750;-104.894;2023-04-30T05:19:19;83761.37;;;14.95;22.83
70437;BME280;57877;39.750;-104.894;2023-04-30T05:21:45;83757.62;;;15.78;22.39
70437;BME280;57877;39.750;-104.894;2023-04-30T05:24:11;83756.36;;;15.39;22.75
70437;BME280;57877;39.750;-104.894;2023-04-30T05:26:37;83754.49;;;15.58;22.80
70437;BME280;57877;39.750;-104.894;2023-04-30T05:29:03;83753.63;;;15.31;22.75
70437;BME280;57877;39.750;-104.894;2023-04-30T05:31:29;83752.16;;;15.54;22.77
70437;BME280;57877;39.750;-104.894;2023-04-30T05:33:55;83752.08;;;15.74;22.73
70437;BME280;57877;39.750;-104.894;2023-04-30T05:36:21;83749.55;;;15.34;23.15
70437;BME280;57877;39.750;-104.894;2023-04-30T05:38:47;83751.87;;;15.25;23.36
70437;BME280;57877;39.750;-104.894;2023-04-30T05:41:13;83754.30;;;15.03;23.65
70437;BME280;57877;39.750;-104.894;2023-04-30T05:43:39;83758.98;;;14.51;24.23
70437;BME280;57877;39.750;-104.894;2023-04-30T05:46:05;83760.10;;;13.94;24.91
70437;BME280;57877;39.750;-104.894;2023-04-30T05:48:31;83762.66;;;13.84;25.16
70437;BME280;57877;39.750;-104.894;2023-04-30T05:50:57;83765.44;;;13.71;25.24
70437;BME280;57877;39.750;-104.894;2023-04-30T05:53:23;83765.47;;;13.78;25.16
70437;BME280;57877;39.750;-104.894;2023-04-30T05:55:48;83767.24;;;13.82;25.56
70437;BME280;57877;39.750;-104.894;2023-04-30T05:58:15;83770.65;;;13.45;25.96
70437;BME280;57877;39.750;-104.894;2023-04-30T06:00:40;83771.31;;;13.57;26.34
70437;BME280;57877;39.750;-104.894;2023-04-30T06:03:06;83768.62;;;13.89;26.29
70437;BME280;57877;39.750;-104.894;2023-04-30T06:05:32;83768.29;;;13.63;26.42
70437;BME280;57877;39.750;-104.894;2023-04-30T06:07:58;83771.71;;;13.40;27.03
70437;BME280;57877;39.750;-104.894;2023-04-30T06:10:24;83770.55;;;13.01;27.33
70437;BME280;57877;39.750;-104.894;2023-04-30T06:12:50;83772.35;;;13.08;27.93
70437;BME280;57877;39.750;-104.894;2023-04-30T06:15:16;83774.68;;;12.47;28.24
70437;BME280;57877;39.750;-104.894;2023-04-30T06:17:42;83778.85;;;12.24;28.25
70437;BME280;57877;39.750;-104.894;2023-04-30T06:20:09;83781.29;;;12.28;28.31
70437;BME280;57877;39.750;-104.894;2023-04-30T06:22:34;83783.25;;;11.75;29.27
70437;BME280;57877;39.750;-104.894;2023-04-30T06:25:00;83786.43;;;11.75;29.62
70437;BME280;57877;39.750;-104.894;2023-04-30T06:27:26;83789.51;;;11.83;29.26
70437;BME280;57877;39.750;-104.894;2023-04-30T06:29:52;83786.56;;;11.96;29.32
70437;BME280;57877;39.750;-104.894;2023-04-30T06:32:18;83786.22;;;12.21;29.15
70437;BME280;57877;39.750;-104.894;2023-04-30T06:34:44;83793.08;;;12.15;28.97
70437;BME280;57877;39.750;-104.894;2023-04-30T06:37:10;83794.56;;;11.72;29.48
70437;BME280;57877;39.750;-104.894;2023-04-30T06:39:36;83789.59;;;11.33;29.93
70437;BME280;57877;39.750;-104.894;2023-04-30T06:42:02;83794.38;;;12.09;28.75
70437;BME280;57877;39.750;-104.894;2023-04-30T06:44:28;83800.74;;;12.06;28.44
70437;BME280;57877;39.750;-104.894;2023-04-30T06:46:54;83800.88;;;12.45;27.97
70437;BME280;57877;39.750;-104.894;2023-04-30T06:49:20;83799.39;;;12.46;28.00
70437;BME280;57877;39.750;-104.894;2023-04-30T06:51:46;83804.32;;;12.34;27.58
70437;BME280;57877;39.750;-104.894;2023-04-30T06:54:12;83808.76;;;11.53;28.55
70437;BME280;57877;39.750;-104.894;2023-04-30T06:56:38;83810.12;;;11.62;28.96
70437;BME280;57877;39.750;-104.894;2023-04-30T06:59:04;83809.04;;;11.29;29.55
70437;BME280;57877;39.750;-104.894;2023-04-30T07:01:30;83811.29;;;11.35;29.37
70437;BME280;57877;39.750;-104.894;2023-04-30T07:03:55;83812.40;;;11.91;28.84
70437;BME280;57877;39.750;-104.894;2023-04-30T07:06:22;83817.00;;;11.67;28.75
70437;BME280;57877;39.750;-104.894;2023-04-30T07:08:47;83822.87;;;12.10;28.51
70437;BME280;57877;39.750;-104.894;2023-04-30T07:11:13;83826.67;;;10.95;29.19
70437;BME280;57877;39.750;-104.894;2023-04-30T07:13:39;83833.89;;;11.60;28.70
70437;BME280;57877;39.750;-104.894;2023-04-30T07:16:06;83834.78;;;11.07;29.45
70437;BME280;57877;39.750;-104.894;2023-04-30T07:18:31;83837.18;;;11.89;28.56
70437;BME280;57877;39.750;-104.894;2023-04-30T07:20:57;83834.38;;;11.77;28.06
70437;BME280;57877;39.750;-104.894;2023-04-30T07:23:23;83831.58;;;12.09;27.55
70437;BME280;57877;39.750;-104.894;2023-04-30T07:25:49;83828.93;;;11.71;27.53
70437;BME280;57877;39.750;-104.894;2023-04-30T07:28:16;83833.31;;;12.02;27.18
70437;BME280;57877;39.750;-104.894;2023-04-30T07:30:41;83831.36;;;11.97;27.25
70437;BME280;57877;39.750;-104.894;2023-04-30T07:33:07;83826.20;;;12.18;27.15
70437;BME280;57877;39.750;-104.894;2023-04-30T07:35:33;83825.19;;;12.10;26.55
70437;BME280;57877;39.750;-104.894;2023-04-30T07:38:00;83825.26;;;11.77;26.63
70437;BME280;57877;39.750;-104.894;2023-04-30T07:40:25;83823.84;;;11.50;26.39
70437;BME280;57877;39.750;-104.894;2023-04-30T07:42:51;83828.96;;;11.87;26.22
70437;BME280;57877;39.750;-104.894;2023-04-30T07:45:17;83832.88;;;12.27;26.00
70437;BME280;57877;39.750;-104.894;2023-04-30T07:47:43;83831.64;;;11.92;26.06
70437;BME280;57877;39.750;-104.894;2023-04-30T07:50:10;83829.11;;;12.17;26.02
70437;BME280;57877;39.750;-104.894;2023-04-30T07:52:35;83824.69;;;11.46;26.41
70437;BME280;57877;39.750;-104.894;2023-04-30T07:55:01;83823.42;;;11.44;26.59
70437;BME280;57877;39.750;-104.894;2023-04-30T07:57:27;83822.00;;;11.23;26.73
70437;BME280;57877;39.750;-104.894;2023-04-30T07:59:53;83820.39;;;10.68;27.29
70437;BME280;57877;39.750;-104.894;2023-04-30T08:02:19;83820.41;;;10.54;27.65
70437;BME280;57877;39.750;-104.894;2023-04-30T08:04:45;83820.98;;;10.24;27.96
70437;BME280;57877;39.750;-104.894;2023-04-30T08:07:11;83816.59;;;10.87;27.00
70437;BME280;57877;39.750;-104.894;2023-04-30T08:09:37;83814.63;;;11.16;27.12
70437;BME280;57877;39.750;-104.894;2023-04-30T08:12:04;83813.02;;;10.54;27.82
70437;BME280;57877;39.750;-104.894;2023-04-30T08:14:30;83813.81;;;10.61;27.73
70437;BME280;57877;39.750;-104.894;2023-04-30T08:16:55;83818.65;;;10.99;27.16
70437;BME280;57877;39.750;-104.894;2023-04-30T08:19:21;83824.59;;;11.65;26.28
70437;BME280;57877;39.750;-104.894;2023-04-30T08:21:47;83832.03;;;11.71;26.06
70437;BME280;57877;39.750;-104.894;2023-04-30T08:24:13;83841.47;;;11.65;26.13
70437;BME280;57877;39.750;-104.894;2023-04-30T08:26:39;83845.10;;;11.46;26.17
70437;BME280;57877;39.750;-104.894;2023-04-30T08:29:05;83841.04;;;11.38;26.90
70437;BME280;57877;39.750;-104.894;2023-04-30T08:31:31;83844.20;;;11.26;27.44
70437;BME280;57877;39.750;-104.894;2023-04-30T08:33:57;83839.05;;;11.34;27.40
70437;BME280;57877;39.750;-104.894;2023-04-30T08:36:23;83837.58;;;11.61;27.24
70437;BME280;57877;39.750;-104.894;2023-04-30T08:38:49;83835.21;;;11.44;27.16
70437;BME280;57877;39.750;-104.894;2023-04-30T08:41:15;83834.48;;;11.53;27.09
70437;BME280;57877;39.750;-104.894;2023-04-30T08:43:42;83834.44;;;11.71;27.10
70437;BME280;57877;39.750;-104.894;2023-04-30T08:46:07;83833.01;;;11.40;27.56
70437;BME280;57877;39.750;-104.894;2023-04-30T08:48:33;83833.40;;;11.60;27.52
70437;BME280;57877;39.750;-104.894;2023-04-30T08:50:59;83831.88;;;11.54;27.60
70437;BME280;57877;39.750;-104.894;2023-04-30T08:53:25;83830.34;;;11.39;27.40
70437;BME280;57877;39.750;-104.894;2023-04-30T08:55:51;83832.25;;;11.66;27.21
70437;BME280;57877;39.750;-104.894;2023-04-30T08:58:17;83829.01;;;11.63;27.31
70437;BME280;57877;39.750;-104.894;2023-04-30T09:00:43;83829.36;;;11.60;27.32
70437;BME280;57877;39.750;-104.894;2023-04-30T09:03:09;83830.36;;;11.33;27.37
70437;BME280;57877;39.750;-104.894;2023-04-30T09:05:36;83826.77;;;11.44;27.59
70437;BME280;57877;39.750;-104.894;2023-04-30T09:08:01;83827.72;;;11.46;27.55
70437;BME280;57877;39.750;-104.894;2023-04-30T09:10:27;83829.68;;;11.48;27.55
70437;BME280;57877;39.750;-104.894;2023-04-30T09:12:58;83832.80;;;10.79;27.80
70437;BME280;57877;39.750;-104.894;2023-04-30T09:15:19;83835.14;;;11.07;27.95
70437;BME280;57877;39.750;-104.894;2023-04-30T09:17:45;83833.37;;;11.00;28.07
70437;BME280;57877;39.750;-104.894;2023-04-30T09:20:12;83833.06;;;10.94;28.22
70437;BME280;57877;39.750;-104.894;2023-04-30T09:22:37;83833.46;;;11.01;27.98
70437;BME280;57877;39.750;-104.894;2023-04-30T09:25:03;83834.57;;;10.91;28.12
70437;BME280;57877;39.750;-104.894;2023-04-30T09:27:28;83835.38;;;10.80;28.30
70437;BME280;57877;39.750;-104.894;2023-04-30T09:29:55;83837.02;;;10.83;28.53
70437;BME280;57877;39.750;-104.894;2023-04-30T09:32:21;83837.77;;;10.74;28.63
70437;BME280;57877;39.750;-104.894;2023-04-30T09:34:47;83837.59;;;10.35;28.75
70437;BME280;57877;39.750;-104.894;2023-04-30T09:37:13;83835.00;;;10.69;28.68
70437;BME280;57877;39.750;-104.894;2023-04-30T09:39:46;83836.89;;;10.31;28.87
70437;BME280;57877;39.750;-104.894;2023-04-30T09:42:08;83835.31;;;10.34;28.81
70437;BME280;57877;39.750;-104.894;2023-04-30T09:44:35;83834.96;;;10.73;28.68
70437;BME280;57877;39.750;-104.894;2023-04-30T09:46:57;83830.81;;;11.00;28.70
70437;BME280;57877;39.750;-104.894;2023-04-30T09:49:22;83831.84;;;10.76;28.76
70437;BME280;57877;39.750;-104.894;2023-04-30T09:51:53;83832.68;;;10.26;29.50
70437;BME280;57877;39.750;-104.894;2023-04-30T09:54:16;83832.17;;;10.44;29.26
70437;BME280;57877;39.750;-104.894;2023-04-30T09:56:41;83829.97;;;10.76;28.87
70437;BME280;57877;39.750;-104.894;2023-04-30T09:59:07;83831.51;;;10.53;29.40
70437;BME280;57877;39.750;-104.894;2023-04-30T10:01:33;83829.94;;;10.11;29.84
70437;BME280;57877;39.750;-104.894;2023-04-30T10:03:58;83827.09;;;10.25;29.79
70437;BME280;57877;39.750;-104.894;2023-04-30T10:06:25;83829.00;;;10.16;29.82
70437;BME280;57877;39.750;-104.894;2023-04-30T10:08:55;83828.12;;;10.30;29.69
70437;BME280;57877;39.750;-104.894;2023-04-30T10:11:19;83826.03;;;9.98;30.15
70437;BME280;57877;39.750;-104.894;2023-04-30T10:13:44;83823.57;;;10.18;29.84
70437;BME280;57877;39.750;-104.894;2023-04-30T10:16:14;83825.23;;;9.74;30.68
70437;BME280;57877;39.750;-104.894;2023-04-30T10:18:35;83825.80;;;9.69;30.99
70437;BME280;57877;39.750;-104.894;2023-04-30T10:21:04;83829.33;;;9.23;31.27
70437;BME280;57877;39.750;-104.894;2023-04-30T10:23:25;83828.83;;;9.18;31.94
70437;BME280;57877;39.750;-104.894;2023-04-30T10:25:51;83827.33;;;9.09;32.08
70437;BME280;57877;39.750;-104.894;2023-04-30T10:28:17;83825.21;;;9.49;32.03
70437;BME280;57877;39.750;-104.894;2023-04-30T10:30:43;83825.41;;;9.08;31.90
70437;BME280;57877;39.750;-104.894;2023-04-30T10:33:17;83824.92;;;9.29;31.79
70437;BME280;57877;39.750;-104.894;2023-04-30T10:35:43;83824.29;;;9.00;32.24
70437;BME280;57877;39.750;-104.894;2023-04-30T10:38:07;83822.67;;;9.32;31.88
70437;BME280;57877;39.750;-104.894;2023-04-30T10:40:27;83821.33;;;9.29;31.90
70437;BME280;57877;39.750;-104.894;2023-04-30T10:42:53;83822.40;;;9.53;31.43
70437;BME280;57877;39.750;-104.894;2023-04-30T10:47:45;83819.36;;;9.52;31.41
70437;BME280;57877;39.750;-104.894;2023-04-30T10:50:12;83817.70;;;9.29;31.47
70437;BME280;57877;39.750;-104.894;2023-04-30T10:52:38;83816.87;;;9.44;31.64
70437;BME280;57877;39.750;-104.894;2023-04-30T10:55:04;83817.81;;;9.15;32.02
70437;BME280;57877;39.750;-104.894;2023-04-30T10:57:29;83820.41;;;9.04;32.38
70437;BME280;57877;39.750;-104.894;2023-04-30T11:02:21;83822.56;;;8.70;32.30
70437;BME280;57877;39.750;-104.894;2023-04-30T11:07:13;83823.54;;;8.64;33.13
70437;BME280;57877;39.750;-104.894;2023-04-30T11:09:41;83825.07;;;8.52;33.07
70437;BME280;57877;39.750;-104.894;2023-04-30T11:12:10;83827.19;;;8.53;33.30
70437;BME280;57877;39.750;-104.894;2023-04-30T11:14:32;83823.27;;;8.63;33.16
70437;BME280;57877;39.750;-104.894;2023-04-30T11:16:56;83824.91;;;8.32;33.72
70437;BME280;57877;39.750;-104.894;2023-04-30T11:19:22;83825.70;;;8.19;33.92
70437;BME280;57877;39.750;-104.894;2023-04-30T11:24:14;83821.25;;;8.75;32.98
70437;BME280;57877;39.750;-104.894;2023-04-30T11:29:06;83823.46;;;8.23;33.67
70437;BME280;57877;39.750;-104.894;2023-04-30T11:31:33;83821.00;;;8.64;33.14
70437;BME280;57877;39.750;-104.894;2023-04-30T11:33:59;83821.66;;;8.61;32.90
70437;BME280;57877;39.750;-104.894;2023-04-30T11:36:25;83823.95;;;8.60;33.41
70437;BME280;57877;39.750;-104.894;2023-04-30T11:38:51;83825.46;;;8.41;33.23
70437;BME280;57877;39.750;-104.894;2023-04-30T11:41:16;83825.08;;;8.32;33.16
70437;BME280;57877;39.750;-104.894;2023-04-30T11:43:42;83829.99;;;8.81;33.37
70437;BME280;57877;39.750;-104.894;2023-04-30T11:46:10;83825.58;;;8.33;33.56
70437;BME280;57877;39.750;-104.894;2023-04-30T11:48:35;83826.03;;;8.58;33.25
70437;BME280;57877;39.750;-104.894;2023-04-30T11:51:02;83826.27;;;8.17;33.76
70437;BME280;57877;39.750;-104.894;2023-04-30T11:53:27;83828.86;;;8.74;33.09
70437;BME280;57877;39.750;-104.894;2023-04-30T11:55:53;83834.15;;;8.28;33.73
70437;BME280;57877;39.750;-104.894;2023-04-30T11:58:19;83835.13;;;8.51;33.75
70437;BME280;57877;39.750;-104.894;2023-04-30T12:00:43;83837.20;;;8.17;34.22
70437;BME280;57877;39.750;-104.894;2023-04-30T12:03:10;83837.32;;;8.57;33.46
70437;BME280;57877;39.750;-104.894;2023-04-30T12:05:35;83837.21;;;8.02;34.00
70437;BME280;57877;39.750;-104.894;2023-04-30T12:08:03;83841.08;;;8.22;34.17
70437;BME280;57877;39.750;-104.894;2023-04-30T12:10:27;83843.05;;;7.75;35.10
70437;BME280;57877;39.750;-104.894;2023-04-30T12:12:53;83847.64;;;7.63;35.80
70437;BME280;57877;39.750;-104.894;2023-04-30T12:15:20;83852.63;;;7.34;35.91
70437;BME280;57877;39.750;-104.894;2023-04-30T12:17:46;83854.36;;;7.54;35.27
70437;BME280;57877;39.750;-104.894;2023-04-30T12:20:12;83849.90;;;8.17;34.57
70437;BME280;57877;39.750;-104.894;2023-04-30T12:22:37;83851.60;;;7.73;34.54
70437;BME280;57877;39.750;-104.894;2023-04-30T12:25:06;83854.33;;;7.92;34.47
70437;BME280;57877;39.750;-104.894;2023-04-30T12:27:29;83853.30;;;8.09;34.30
70437;BME280;57877;39.750;-104.894;2023-04-30T12:29:55;83853.83;;;8.05;34.33
70437;BME280;57877;39.750;-104.894;2023-04-30T12:32:21;83857.40;;;8.34;33.93
70437;BME280;57877;39.750;-104.894;2023-04-30T12:34:47;83856.87;;;8.08;33.98
70437;BME280;57877;39.750;-104.894;2023-04-30T12:37:15;83858.54;;;8.21;33.75
70437;BME280;57877;39.750;-104.894;2023-04-30T12:39:38;83858.06;;;8.01;33.83